EGEC/CAL METAR and TAF weather

Enter ICAO airport designator
Station Type Date Time Source
EGEC METAR 2020/05/26 06:50 UTC NOAA

EGEC 260650Z 32004KT 9999 BKN004 BKN011 10/09 Q1035


Station Type Date Time Source
EGEC Decoded METAR 2020/05/26 06:50 UTC NOAA

Campbeltown, United Kingdom (EGEC) 55-26-14N 005-41-11W
May 26, 2020 - 02:50 AM EDT / 2020.05.26 0650 UTC
Wind: from the NW (320 degrees) at 5 MPH (4 KT):0
Visibility: greater than 7 mile(s):0
Sky conditions: mostly cloudy
Temperature: 50 F (10 C)
Dew Point: 48 F (9 C)
Relative Humidity: 93%
Pressure (altimeter): 30.56 in. Hg (1035 hPa)
ob: EGEC 260650Z 32004KT 9999 BKN004 BKN011 10/09 Q1035
cycle: 7

Station Type Date Time Source
EGEC TAF UTC NOAA

Error!

Example: see airport list